createdAt,value
2024-01-28T00:01:45.657Z,7.10
2024-01-28T00:04:15.736Z,7.23
2024-01-28T00:06:45.289Z,6.40
2024-01-28T00:09:15.072Z,6.87
2024-01-28T00:11:45.490Z,8.80
2024-01-28T00:14:14.345Z,6.70
2024-01-28T00:16:43.303Z,8.10
2024-01-28T00:19:12.327Z,6.93
2024-01-28T00:21:41.186Z,6.97
2024-01-28T00:24:10.247Z,5.37
2024-01-28T00:26:42.633Z,6.50
2024-01-28T00:29:12.797Z,6.50
2024-01-28T00:31:41.628Z,6.03
2024-01-28T00:34:10.463Z,6.37
2024-01-28T00:36:39.409Z,6.50
2024-01-28T00:39:08.508Z,6.07
2024-01-28T00:41:38.363Z,6.80
2024-01-28T00:44:07.552Z,6.17
2024-01-28T00:46:38.188Z,6.30
2024-01-28T00:49:07.390Z,6.00
2024-01-28T00:51:36.377Z,7.27
2024-01-28T00:54:05.506Z,5.73
2024-01-28T00:56:35.070Z,7.90
2024-01-28T00:59:03.849Z,6.50
2024-01-28T01:01:32.739Z,6.70
2024-01-28T01:04:03.100Z,5.93
2024-01-28T01:06:31.997Z,7.03
2024-01-28T01:09:01.544Z,5.97
2024-01-28T01:11:30.478Z,6.40
2024-01-28T01:13:59.417Z,6.30
2024-01-28T01:16:28.729Z,6.40
2024-01-28T01:18:57.607Z,6.43
2024-01-28T01:21:27.815Z,7.50
2024-01-28T01:23:56.900Z,6.30
2024-01-28T01:26:25.679Z,6.47
2024-01-28T01:28:54.495Z,6.13
2024-01-28T01:31:23.323Z,6.40
2024-01-28T01:33:52.237Z,6.33
2024-01-28T01:36:21.059Z,6.30
2024-01-28T01:38:51.441Z,6.03
2024-01-28T01:41:20.424Z,5.27
2024-01-28T01:43:49.315Z,7.07
2024-01-28T01:46:18.164Z,6.20
2024-01-28T01:48:47.619Z,6.60
2024-01-28T01:51:18.082Z,5.20
2024-01-28T01:53:46.946Z,6.73
2024-01-28T01:56:17.570Z,6.20
2024-01-28T01:58:47.517Z,5.77
2024-01-28T02:01:18.032Z,6.50
2024-01-28T02:03:46.954Z,6.10
2024-01-28T02:06:18.326Z,5.60
2024-01-28T02:08:47.500Z,7.37
2024-01-28T02:11:17.716Z,6.37
2024-01-28T02:13:46.489Z,6.97
2024-01-28T02:16:15.231Z,5.93
2024-01-28T02:18:44.133Z,5.67
2024-01-28T02:21:13.220Z,6.60
2024-01-28T02:23:43.355Z,6.30
2024-01-28T02:26:12.528Z,6.70
2024-01-28T02:28:41.264Z,6.60
2024-01-28T02:31:10.032Z,6.50
2024-01-28T02:33:39.023Z,6.23
2024-01-28T02:36:08.706Z,6.07
2024-01-28T02:38:37.502Z,6.50
2024-01-28T02:41:07.706Z,5.77
2024-01-28T02:43:36.996Z,6.30
2024-01-28T02:46:06.478Z,7.00
2024-01-28T02:48:35.341Z,5.90
2024-01-28T02:51:04.436Z,5.90
2024-01-28T02:53:33.221Z,6.63
2024-01-28T02:56:02.127Z,6.00
2024-01-28T02:58:33.542Z,6.90
2024-01-28T03:01:02.942Z,6.83
2024-01-28T03:03:31.899Z,7.60
2024-01-28T03:06:00.736Z,6.47
2024-01-28T03:08:29.607Z,6.70
2024-01-28T03:10:58.358Z,6.20
2024-01-28T03:13:27.200Z,6.67
2024-01-28T03:15:57.889Z,6.60
2024-01-28T03:18:26.843Z,5.83
2024-01-28T03:20:55.633Z,5.80
2024-01-28T03:23:24.820Z,6.13
2024-01-28T03:25:53.532Z,5.13
2024-01-28T03:28:22.302Z,6.10
2024-01-28T03:30:51.219Z,5.33
2024-01-28T03:33:21.778Z,6.80
2024-01-28T03:35:50.646Z,6.60
2024-01-28T03:38:19.650Z,6.87
2024-01-28T03:40:48.518Z,4.90
2024-01-28T03:43:17.424Z,4.57
2024-01-28T03:45:46.290Z,6.60
2024-01-28T03:48:15.575Z,7.40
2024-01-28T03:50:45.871Z,6.30
2024-01-28T03:53:14.637Z,5.83
2024-01-28T03:55:44.433Z,6.37
2024-01-28T03:58:13.581Z,6.17
2024-01-28T04:00:42.500Z,5.97
2024-01-28T04:03:11.968Z,5.93
2024-01-28T04:05:40.827Z,4.87
2024-01-28T04:08:13.176Z,6.97
2024-01-28T04:10:42.028Z,6.33
2024-01-28T04:13:10.866Z,5.90
2024-01-28T04:15:39.642Z,5.90
2024-01-28T04:18:08.949Z,5.93
2024-01-28T04:20:37.828Z,6.83
2024-01-28T04:23:06.703Z,6.47
2024-01-28T04:25:36.783Z,5.83
2024-01-28T04:28:05.748Z,8.00
2024-01-28T04:30:34.541Z,5.83
2024-01-28T04:33:03.407Z,5.93
2024-01-28T04:35:32.169Z,6.07
2024-01-28T04:38:00.887Z,5.90
2024-01-28T04:40:29.877Z,6.00
2024-01-28T04:43:00.080Z,5.70
2024-01-28T04:45:28.992Z,4.93
2024-01-28T04:47:57.877Z,5.93
2024-01-28T04:50:26.908Z,6.17
2024-01-28T04:52:55.686Z,6.80
2024-01-28T04:55:24.693Z,8.10
2024-01-28T04:57:53.507Z,8.10
2024-01-28T05:00:24.618Z,8.10
2024-01-28T05:02:56.507Z,10.10
2024-01-28T05:05:25.387Z,10.40
2024-01-28T05:07:54.116Z,11.80
2024-01-28T05:10:23.008Z,10.20
2024-01-28T05:12:52.046Z,13.90
2024-01-28T05:15:22.947Z,8.20
2024-01-28T05:17:51.759Z,8.80
2024-01-28T05:20:20.579Z,9.00
2024-01-28T05:22:49.337Z,8.47
2024-01-28T05:25:18.366Z,6.47
2024-01-28T05:27:47.151Z,6.17
2024-01-28T05:30:16.253Z,6.37
2024-01-28T05:32:46.439Z,6.27
2024-01-28T05:35:15.232Z,17.80
2024-01-28T05:37:44.159Z,36.57
2024-01-28T05:40:14.199Z,18.20
2024-01-28T05:42:43.612Z,19.00
2024-01-28T05:45:12.437Z,8.13
2024-01-28T05:47:41.170Z,6.80
2024-01-28T05:50:12.486Z,7.03
2024-01-28T05:52:41.280Z,6.57
2024-01-28T05:55:10.210Z,7.10
2024-01-28T05:57:38.976Z,6.00
2024-01-28T06:00:10.009Z,5.70
2024-01-28T06:02:39.953Z,6.37
2024-01-28T06:05:11.600Z,5.83
2024-01-28T06:07:40.308Z,7.87
2024-01-28T06:10:09.656Z,7.00
2024-01-28T06:12:38.509Z,6.27
2024-01-28T06:15:09.577Z,12.73
2024-01-28T06:17:40.043Z,8.83
2024-01-28T06:20:11.412Z,9.97
2024-01-28T06:22:40.165Z,9.83
2024-01-28T06:25:10.822Z,6.40
2024-01-28T06:27:39.692Z,6.23
2024-01-28T06:30:09.908Z,6.50
2024-01-28T06:32:38.856Z,6.50
2024-01-28T06:35:08.670Z,6.00
2024-01-28T06:37:39.091Z,6.60
2024-01-28T06:40:09.368Z,6.70
2024-01-28T06:42:38.183Z,5.63
2024-01-28T06:45:09.352Z,6.43
2024-01-28T06:47:38.257Z,5.70
2024-01-28T06:50:08.142Z,5.87
2024-01-28T06:52:38.338Z,7.07
2024-01-28T06:55:08.490Z,8.87
2024-01-28T06:57:37.423Z,18.87
2024-01-28T07:00:11.632Z,7.70
2024-01-28T07:02:40.532Z,6.00
2024-01-28T07:05:10.781Z,5.83
2024-01-28T07:07:40.916Z,6.10
2024-01-28T07:10:10.884Z,6.57
2024-01-28T07:12:40.745Z,6.73
2024-01-28T07:15:10.929Z,7.83
2024-01-28T07:17:39.704Z,7.00
2024-01-28T07:20:10.021Z,7.50
2024-01-28T07:22:40.436Z,7.50
2024-01-28T07:25:09.934Z,8.67
2024-01-28T07:27:38.707Z,7.90
2024-01-28T07:30:08.710Z,8.90
2024-01-28T07:32:37.752Z,8.10
2024-01-28T07:35:08.319Z,8.70
2024-01-28T07:37:37.286Z,6.33
2024-01-28T07:40:08.953Z,9.83
2024-01-28T07:42:37.702Z,10.27
2024-01-28T07:45:07.016Z,9.43
2024-01-28T07:47:36.124Z,9.17
2024-01-28T07:50:06.526Z,8.93
2024-01-28T07:52:35.597Z,10.70
2024-01-28T07:55:04.472Z,9.73
2024-01-28T07:57:34.704Z,16.43
2024-01-28T08:00:06.022Z,36.43
2024-01-28T08:02:34.740Z,21.47
2024-01-28T08:05:03.502Z,22.20
2024-01-28T08:07:32.305Z,35.33
2024-01-28T08:10:01.084Z,23.87
2024-01-28T08:12:29.880Z,19.50
2024-01-28T08:15:00.490Z,19.47
2024-01-28T08:17:29.354Z,16.00
2024-01-28T08:19:58.735Z,14.57
2024-01-28T08:22:27.593Z,14.93
2024-01-28T08:24:56.480Z,15.20
2024-01-28T08:27:25.451Z,12.20
2024-01-28T08:29:54.267Z,9.43
2024-01-28T08:32:24.564Z,8.17
2024-01-28T08:34:53.732Z,6.07
2024-01-28T08:37:23.928Z,7.03
2024-01-28T08:39:52.815Z,7.40
2024-01-28T08:42:22.994Z,7.60
2024-01-28T08:44:51.977Z,8.30
2024-01-28T08:47:20.844Z,8.23
2024-01-28T08:49:51.956Z,7.20
2024-01-28T08:52:21.450Z,8.63
2024-01-28T08:54:50.399Z,9.00
2024-01-28T08:57:20.028Z,8.73
2024-01-28T08:59:48.848Z,8.20
2024-01-28T09:02:17.577Z,8.80
2024-01-28T09:04:46.583Z,8.00
2024-01-28T09:07:16.840Z,7.90
2024-01-28T09:09:45.907Z,8.03
2024-01-28T09:12:14.773Z,9.83
2024-01-28T09:14:43.862Z,10.47
2024-01-28T09:17:13.047Z,8.10
2024-01-28T09:19:41.905Z,8.40
2024-01-28T09:22:10.709Z,16.27
2024-01-28T09:24:41.125Z,8.10
2024-01-28T09:27:10.079Z,7.90
2024-01-28T09:29:40.359Z,9.60
2024-01-28T09:32:09.628Z,7.40
2024-01-28T09:34:38.522Z,8.00
2024-01-28T09:37:08.795Z,7.50
2024-01-28T09:39:37.671Z,6.90
2024-01-28T09:42:14.356Z,7.20
2024-01-28T09:44:43.156Z,9.13
2024-01-28T09:47:12.511Z,7.23
2024-01-28T09:49:44.174Z,7.77
2024-01-28T09:52:14.237Z,6.57
2024-01-28T09:54:45.840Z,7.50
2024-01-28T09:57:17.593Z,7.03
2024-01-28T09:59:47.537Z,7.97
2024-01-28T10:02:18.866Z,7.60
2024-01-28T10:04:48.139Z,9.77
2024-01-28T10:07:17.317Z,7.17
2024-01-28T10:09:46.900Z,7.37
2024-01-28T10:12:17.126Z,6.70
2024-01-28T10:14:52.559Z,7.80
2024-01-28T10:17:24.268Z,8.63
2024-01-28T10:19:53.199Z,7.93
2024-01-28T10:22:21.923Z,8.70
2024-01-28T10:24:51.679Z,8.80
2024-01-28T10:27:22.561Z,9.00
2024-01-28T10:29:51.677Z,8.17
2024-01-28T10:32:20.398Z,7.60
2024-01-28T10:34:49.364Z,6.83
2024-01-28T10:37:19.704Z,7.43
2024-01-28T10:39:52.943Z,6.90
2024-01-28T10:42:24.088Z,8.03
2024-01-28T10:44:58.890Z,7.20
2024-01-28T10:47:32.138Z,7.73
2024-01-28T10:50:04.535Z,8.47
2024-01-28T10:52:34.640Z,8.70
2024-01-28T10:55:03.927Z,7.80
2024-01-28T10:57:34.872Z,7.30
2024-01-28T11:00:06.297Z,8.20
2024-01-28T11:02:35.818Z,7.00
2024-01-28T11:05:05.194Z,8.30
2024-01-28T11:07:34.459Z,8.10
2024-01-28T11:10:03.634Z,6.87
2024-01-28T11:12:36.202Z,7.47
2024-01-28T11:15:05.247Z,6.50
2024-01-28T11:17:35.209Z,9.37
2024-01-28T11:20:10.775Z,8.63
2024-01-28T11:22:50.245Z,9.37
2024-01-28T11:25:21.831Z,9.43
2024-01-28T11:27:53.679Z,7.80
2024-01-28T11:30:23.824Z,7.70
2024-01-28T11:32:53.971Z,8.10
2024-01-28T11:35:24.686Z,7.93
2024-01-28T11:37:57.151Z,8.73
2024-01-28T11:40:31.202Z,9.37
2024-01-28T11:43:01.767Z,7.90
2024-01-28T11:45:31.161Z,8.50
2024-01-28T11:48:00.240Z,7.37
2024-01-28T11:50:29.079Z,7.07
2024-01-28T11:52:57.958Z,5.80
2024-01-28T11:55:26.758Z,6.50
2024-01-28T11:57:56.381Z,6.33
2024-01-28T12:00:27.929Z,6.63
2024-01-28T12:02:56.944Z,6.33
2024-01-28T12:05:25.911Z,6.53
2024-01-28T12:07:57.117Z,5.70
2024-01-28T12:10:26.172Z,6.70
2024-01-28T12:12:59.769Z,6.57
2024-01-28T12:15:30.033Z,6.50
2024-01-28T12:18:00.157Z,6.23
2024-01-28T12:20:29.164Z,7.10
2024-01-28T12:22:57.984Z,6.90
2024-01-28T12:25:26.795Z,7.57
2024-01-28T12:27:56.364Z,5.13
2024-01-28T12:30:25.795Z,5.50
2024-01-28T12:32:57.195Z,4.73
2024-01-28T12:35:26.137Z,4.20
2024-01-28T12:37:54.907Z,7.53
2024-01-28T12:40:23.713Z,5.63
2024-01-28T12:42:52.795Z,4.03
2024-01-28T12:45:22.546Z,5.33
2024-01-28T12:47:51.342Z,5.23
2024-01-28T12:50:21.977Z,4.87
2024-01-28T12:52:50.744Z,3.80
2024-01-28T12:55:19.728Z,3.23
2024-01-28T12:57:48.584Z,3.77
2024-01-28T13:00:19.764Z,3.27
2024-01-28T13:02:50.118Z,4.27
2024-01-28T13:05:20.864Z,3.10
2024-01-28T13:07:49.649Z,3.27
2024-01-28T13:10:18.655Z,3.47
2024-01-28T13:12:47.484Z,4.40
2024-01-28T13:15:16.401Z,3.13
2024-01-28T13:17:45.531Z,3.13
2024-01-28T13:20:14.885Z,2.50
2024-01-28T13:22:46.157Z,2.87
2024-01-28T13:25:16.462Z,2.57
2024-01-28T13:27:45.460Z,4.87
2024-01-28T13:30:15.031Z,3.50
2024-01-28T13:32:47.503Z,3.10
2024-01-28T13:35:16.614Z,3.70
2024-01-28T13:37:46.893Z,2.90
2024-01-28T13:40:15.605Z,3.20
2024-01-28T13:42:44.290Z,2.63
2024-01-28T13:45:13.505Z,2.30
2024-01-28T13:47:45.064Z,2.80
2024-01-28T13:50:14.005Z,3.00
2024-01-28T13:52:42.854Z,2.63
2024-01-28T13:55:13.052Z,2.87
2024-01-28T13:57:41.909Z,2.73
2024-01-28T14:00:12.506Z,2.50
2024-01-28T14:02:43.257Z,2.07
2024-01-28T14:05:13.828Z,2.73
2024-01-28T14:07:43.023Z,2.70
2024-01-28T14:10:13.719Z,2.67
2024-01-28T14:12:42.590Z,8.80
2024-01-28T14:15:12.001Z,14.40
2024-01-28T14:17:41.198Z,3.53
2024-01-28T14:20:11.224Z,3.20
2024-01-28T14:22:40.030Z,4.97
2024-01-28T14:25:09.479Z,4.17
2024-01-28T14:27:39.633Z,3.40
2024-01-28T14:30:09.526Z,3.20
2024-01-28T14:32:38.340Z,3.10
2024-01-28T14:35:07.961Z,2.80
2024-01-28T14:37:36.844Z,2.70
2024-01-28T14:40:07.763Z,2.73
2024-01-28T14:42:36.831Z,4.23
2024-01-28T14:45:08.201Z,2.97
2024-01-28T14:47:37.209Z,6.37
2024-01-28T14:50:06.556Z,4.23
2024-01-28T14:52:35.315Z,3.50
2024-01-28T14:55:05.077Z,3.37
2024-01-28T14:57:35.229Z,4.03
2024-01-28T15:00:05.532Z,3.50
2024-01-28T15:02:35.781Z,3.60
2024-01-28T15:05:06.640Z,3.93
2024-01-28T15:07:35.484Z,3.70
2024-01-28T15:10:04.842Z,3.33
2024-01-28T15:12:33.676Z,3.90
2024-01-28T15:15:02.400Z,3.80
2024-01-28T15:17:31.227Z,4.70
2024-01-28T15:20:01.626Z,4.20
2024-01-28T15:22:30.526Z,4.10
2024-01-28T15:25:00.568Z,7.47
2024-01-28T15:27:30.468Z,6.87
2024-01-28T15:29:59.275Z,6.57
2024-01-28T15:32:28.066Z,6.33
2024-01-28T15:34:57.381Z,6.80
2024-01-28T15:37:28.180Z,5.17
2024-01-28T15:39:57.544Z,7.10
2024-01-28T15:42:26.433Z,7.57
2024-01-28T15:44:57.798Z,6.33
2024-01-28T15:47:27.199Z,5.57
2024-01-28T15:49:56.348Z,5.83
2024-01-28T15:52:25.476Z,5.93
2024-01-28T15:54:55.651Z,5.00
2024-01-28T15:57:24.771Z,5.00
2024-01-28T16:00:04.509Z,5.00
2024-01-28T16:02:36.398Z,5.33
2024-01-28T16:05:05.484Z,6.17
2024-01-28T16:07:34.411Z,5.57
2024-01-28T16:10:04.712Z,5.30
2024-01-28T16:12:33.745Z,5.27
2024-01-28T16:15:03.533Z,5.83
2024-01-28T16:17:32.417Z,6.10
2024-01-28T16:20:01.286Z,5.40
2024-01-28T16:22:30.884Z,5.60
2024-01-28T16:24:59.763Z,5.50
2024-01-28T16:27:30.071Z,5.67
2024-01-28T16:29:58.761Z,6.43
2024-01-28T16:32:27.474Z,7.07
2024-01-28T16:34:56.691Z,8.40
2024-01-28T16:37:26.287Z,6.53
2024-01-28T16:39:55.039Z,6.70
2024-01-28T16:42:24.626Z,5.97
2024-01-28T16:44:54.658Z,5.50
2024-01-28T16:47:23.414Z,5.93
2024-01-28T16:49:52.387Z,5.07
2024-01-28T16:52:21.970Z,5.40
2024-01-28T16:54:50.933Z,6.30
2024-01-28T16:57:20.036Z,5.57
2024-01-28T16:59:48.774Z,4.70
2024-01-28T17:02:19.274Z,5.10
2024-01-28T17:04:48.046Z,5.57
2024-01-28T17:07:16.834Z,4.77
2024-01-28T17:09:45.611Z,5.30
2024-01-28T17:12:14.380Z,7.43
2024-01-28T17:14:44.300Z,6.30
2024-01-28T17:17:13.208Z,8.00
2024-01-28T17:19:43.393Z,8.40
2024-01-28T17:22:12.139Z,7.67
2024-01-28T17:24:41.024Z,5.93
2024-01-28T17:27:11.114Z,6.20
2024-01-28T17:29:39.855Z,7.10
2024-01-28T17:32:09.670Z,6.30
2024-01-28T17:34:38.900Z,6.30
2024-01-28T17:37:09.469Z,6.70
2024-01-28T17:39:38.327Z,6.90
2024-01-28T17:42:12.614Z,4.87
2024-01-28T17:44:41.399Z,5.60
2024-01-28T17:47:11.246Z,5.57
2024-01-28T17:49:40.407Z,6.60
2024-01-28T17:52:13.035Z,6.40
2024-01-28T17:54:42.251Z,6.00
2024-01-28T17:57:11.057Z,6.40
2024-01-28T17:59:39.837Z,6.63
2024-01-28T18:02:08.614Z,6.40
2024-01-28T18:04:37.646Z,8.90
2024-01-28T18:07:07.005Z,6.90
2024-01-28T18:09:38.465Z,6.23
2024-01-28T18:12:08.513Z,7.00
2024-01-28T18:14:37.410Z,9.97
2024-01-28T18:17:06.637Z,7.40
2024-01-28T18:19:35.786Z,7.00
2024-01-28T18:22:04.802Z,6.83
2024-01-28T18:24:34.975Z,7.47
2024-01-28T18:27:05.434Z,8.40
2024-01-28T18:29:34.349Z,8.10
2024-01-28T18:32:03.445Z,8.20
2024-01-28T18:34:33.686Z,11.00
2024-01-28T18:37:02.829Z,9.10
2024-01-28T18:39:32.440Z,8.70
2024-01-28T18:42:01.256Z,13.67
2024-01-28T18:44:31.620Z,15.07
2024-01-28T18:47:00.354Z,10.20
2024-01-28T18:49:29.297Z,11.60
2024-01-28T18:51:59.226Z,13.27
2024-01-28T18:54:28.233Z,12.80
2024-01-28T18:56:57.299Z,11.27
2024-01-28T18:59:26.045Z,8.90
2024-01-28T19:01:56.364Z,10.07
2024-01-28T19:04:25.378Z,10.20
2024-01-28T19:06:54.732Z,9.93
2024-01-28T19:09:23.584Z,10.10
2024-01-28T19:11:52.489Z,8.60
2024-01-28T19:14:22.560Z,9.23
2024-01-28T19:16:55.707Z,9.10
2024-01-28T19:19:26.820Z,10.40
2024-01-28T19:21:55.777Z,10.60
2024-01-28T19:24:24.862Z,11.20
2024-01-28T19:26:53.704Z,10.07
2024-01-28T19:29:22.482Z,12.23
2024-01-28T19:31:51.327Z,12.80
2024-01-28T19:34:20.175Z,10.20
2024-01-28T19:36:50.435Z,10.47
2024-01-28T19:39:25.096Z,10.50
2024-01-28T19:41:54.253Z,11.50
2024-01-28T19:44:23.061Z,11.10
2024-01-28T19:46:51.912Z,9.60
2024-01-28T19:49:21.008Z,10.23
2024-01-28T19:51:51.370Z,10.77
2024-01-28T19:54:22.212Z,10.10
2024-01-28T19:56:51.269Z,10.67
2024-01-28T19:59:21.079Z,9.87
2024-01-28T20:01:51.713Z,12.37
2024-01-28T20:04:20.827Z,10.50
2024-01-28T20:06:51.713Z,10.03
2024-01-28T20:09:20.554Z,10.30
2024-01-28T20:11:49.536Z,8.60
2024-01-28T20:14:18.378Z,9.30
2024-01-28T20:16:47.187Z,10.03
2024-01-28T20:19:20.721Z,10.83
2024-01-28T20:21:54.449Z,10.50
2024-01-28T20:24:23.450Z,10.10
2024-01-28T20:26:52.294Z,10.03
2024-01-28T20:29:23.964Z,11.47
2024-01-28T20:31:52.752Z,9.93
2024-01-28T20:34:23.546Z,9.60
2024-01-28T20:36:53.874Z,9.37
2024-01-28T20:39:23.406Z,9.10
2024-01-28T20:41:52.541Z,10.33
2024-01-28T20:44:25.001Z,8.70
2024-01-28T20:46:54.111Z,10.60
2024-01-28T20:49:23.300Z,9.50
2024-01-28T20:51:53.563Z,10.23
2024-01-28T20:54:22.404Z,10.50
2024-01-28T20:56:51.502Z,9.77
2024-01-28T20:59:20.424Z,10.50
2024-01-28T21:01:49.312Z,11.33
2024-01-28T21:04:18.284Z,11.77
2024-01-28T21:06:47.163Z,11.60
2024-01-28T21:09:17.473Z,14.23
2024-01-28T21:11:46.271Z,13.37
2024-01-28T21:14:17.122Z,14.23
2024-01-28T21:16:46.088Z,14.73
2024-01-28T21:19:15.323Z,15.20
2024-01-28T21:21:44.602Z,11.80
2024-01-28T21:24:13.916Z,11.33
2024-01-28T21:26:44.023Z,11.10
2024-01-28T21:29:13.215Z,10.33
2024-01-28T21:31:42.425Z,12.63
2024-01-28T21:34:12.367Z,13.50
2024-01-28T21:36:41.298Z,12.57
2024-01-28T21:39:10.179Z,11.47
2024-01-28T21:41:39.355Z,11.63
2024-01-28T21:44:09.925Z,11.10
2024-01-28T21:46:38.793Z,12.47
2024-01-28T21:49:07.904Z,10.97
2024-01-28T21:51:37.550Z,11.80
2024-01-28T21:54:06.783Z,11.67
2024-01-28T21:56:35.599Z,10.60
2024-01-28T21:59:04.701Z,12.37
2024-01-28T22:01:35.019Z,11.30
2024-01-28T22:04:03.888Z,10.33
2024-01-28T22:06:32.855Z,10.40
2024-01-28T22:09:01.814Z,10.40
2024-01-28T22:11:30.727Z,11.30
2024-01-28T22:13:59.526Z,10.77
2024-01-28T22:16:28.467Z,12.83
2024-01-28T22:18:58.699Z,12.17
2024-01-28T22:21:27.913Z,10.50
2024-01-28T22:23:56.837Z,11.70
2024-01-28T22:26:25.665Z,10.33
2024-01-28T22:28:54.679Z,10.30
2024-01-28T22:31:23.379Z,10.23
2024-01-28T22:33:52.929Z,10.30
2024-01-28T22:36:23.144Z,10.77
2024-01-28T22:38:51.943Z,11.00
2024-01-28T22:41:20.685Z,11.30
2024-01-28T22:43:49.441Z,11.67
2024-01-28T22:46:18.228Z,12.40
2024-01-28T22:48:47.249Z,12.37
2024-01-28T22:51:16.342Z,11.20
2024-01-28T22:53:46.558Z,11.40
2024-01-28T22:56:15.312Z,9.97
2024-01-28T22:58:44.086Z,9.70
2024-01-28T23:01:14.112Z,10.13
2024-01-28T23:03:44.473Z,10.00
2024-01-28T23:06:18.701Z,10.43
2024-01-28T23:08:49.263Z,10.97
2024-01-28T23:11:18.110Z,10.90
2024-01-28T23:13:47.482Z,10.00
2024-01-28T23:16:16.879Z,9.93
2024-01-28T23:18:45.853Z,9.70
2024-01-28T23:21:15.072Z,11.00
2024-01-28T23:23:44.509Z,9.57
2024-01-28T23:26:14.659Z,10.53
2024-01-28T23:28:43.416Z,10.50
2024-01-28T23:31:12.191Z,11.57
2024-01-28T23:33:40.206Z,10.80
2024-01-28T23:36:09.789Z,10.80
2024-01-28T23:38:39.282Z,9.60
2024-01-28T23:41:08.038Z,9.80
2024-01-28T23:43:38.167Z,9.87
2024-01-28T23:46:06.922Z,10.80
2024-01-28T23:48:38.557Z,13.70
2024-01-28T23:51:07.521Z,11.40
2024-01-28T23:53:36.276Z,11.70
2024-01-28T23:56:05.372Z,10.83
2024-01-28T23:58:34.143Z,11.53
